Time;durP1;ratioP1;P1;durP2;ratioP2;P2;SDS_P1;SDS_P2;PMS_P1;PMS_P2;Temp;Humidity;BMP_temperature;BMP_pressure;BME280_temperature;BME280_humidity;BME280_pressure;Samples;Min_cycle;Max_cycle;Signal;HPM_P1;HPM_P2
2022/12/11 00:00:07;;;;;;;42.60;24.48;;;0.70;89.00;;;;;;5036109;28;20028;-43
2022/12/11 00:02:34;;;;;;;41.80;24.95;;;0.60;88.90;;;;;;5039056;28;20022;-46
2022/12/11 00:05:01;;;;;;;40.55;23.98;;;0.60;88.90;;;;;;5031768;28;20380;-45
2022/12/11 00:07:28;;;;;;;38.95;24.65;;;0.70;88.90;;;;;;5033902;28;20033;-41
2022/12/11 00:09:55;;;;;;;38.03;23.83;;;0.70;89.00;;;;;;5029921;28;20462;-44
2022/12/11 00:12:21;;;;;;;39.03;24.55;;;0.70;88.70;;;;;;5028014;28;20030;-43
2022/12/11 00:14:48;;;;;;;43.33;23.95;;;0.70;88.80;;;;;;5031862;28;20055;-42
2022/12/11 00:17:15;;;;;;;39.95;24.63;;;0.60;88.80;;;;;;5033624;28;20048;-42
2022/12/11 00:19:42;;;;;;;40.35;23.17;;;0.70;88.90;;;;;;5032708;28;20032;-43
2022/12/11 00:22:12;;;;;;;39.05;24.80;;;0.60;88.70;;;;;;5026759;28;20029;-43
2022/12/11 00:24:44;;;;;;;42.17;26.33;;;0.60;88.80;;;;;;5017036;28;20491;-43
2022/12/11 00:27:10;;;;;;;40.22;24.65;;;0.60;88.90;;;;;;5022481;28;20041;-42
2022/12/11 00:29:39;;;;;;;49.85;26.23;;;0.60;89.00;;;;;;5018484;28;20030;-41
2022/12/11 00:32:06;;;;;;;44.63;26.23;;;0.60;88.70;;;;;;5024488;28;20021;-40
2022/12/11 00:34:33;;;;;;;39.03;24.23;;;0.60;88.70;;;;;;5022295;28;20030;-43
2022/12/11 00:36:59;;;;;;;41.08;24.83;;;0.60;88.90;;;;;;5033707;28;20030;-43
2022/12/11 00:39:26;;;;;;;50.25;26.58;;;0.70;88.90;;;;;;5032457;28;20065;-42
2022/12/11 00:41:57;;;;;;;43.05;24.88;;;0.60;88.90;;;;;;5031336;28;20079;-42
2022/12/11 00:44:24;;;;;;;47.50;26.98;;;0.60;88.90;;;;;;5034447;28;20045;-45
2022/12/11 00:46:51;;;;;;;46.50;26.70;;;0.60;88.90;;;;;;5034050;28;20022;-43
2022/12/11 00:49:16;;;;;;;52.42;27.90;;;0.60;88.90;;;;;;5052997;28;20029;-42
2022/12/11 00:51:43;;;;;;;52.17;27.52;;;0.60;89.10;;;;;;5052869;28;20386;-42
2022/12/11 00:54:09;;;;;;;54.75;30.88;;;0.60;89.00;;;;;;5032378;28;20354;-44
2022/12/11 00:56:36;;;;;;;59.20;30.33;;;0.60;89.10;;;;;;5032576;28;20029;-44
2022/12/11 00:59:06;;;;;;;69.65;30.90;;;0.60;89.00;;;;;;5048930;28;20072;-42
2022/12/11 01:01:34;;;;;;;62.97;34.00;;;0.60;89.10;;;;;;5037867;28;20367;-44
2022/12/11 01:04:01;;;;;;;69.15;36.30;;;0.70;89.00;;;;;;5052106;28;20044;-43
2022/12/11 01:06:28;;;;;;;78.75;32.88;;;0.70;89.20;;;;;;5041316;28;20021;-45
2022/12/11 01:11:42;;;;;;;75.78;35.05;;;0.70;89.40;;;;;;5023686;28;20036;-45
2022/12/11 01:14:10;;;;;;;86.78;33.80;;;0.70;89.50;;;;;;5022833;28;20514;-40
2022/12/11 01:16:37;;;;;;;75.32;33.33;;;0.60;89.60;;;;;;5011690;28;20048;-42
2022/12/11 01:19:04;;;;;;;75.75;35.28;;;0.60;89.70;;;;;;5031502;28;20443;-42
2022/12/11 01:21:31;;;;;;;79.43;33.40;;;0.60;89.80;;;;;;5030949;28;20029;-41
2022/12/11 01:24:00;;;;;;;83.32;36.35;;;0.60;89.90;;;;;;5032595;28;20053;-47
2022/12/11 01:26:27;;;;;;;74.53;35.08;;;0.60;89.90;;;;;;5031932;28;20026;-42
2022/12/11 01:28:54;;;;;;;67.85;32.95;;;0.60;90.00;;;;;;5032555;28;20033;-42
2022/12/11 01:31:21;;;;;;;82.07;36.00;;;0.70;90.20;;;;;;5028762;28;20041;-43
2022/12/11 01:33:48;;;;;;;74.10;35.03;;;0.60;90.10;;;;;;5032604;28;20030;-42
2022/12/11 01:36:18;;;;;;;75.55;33.65;;;0.60;90.20;;;;;;5031519;28;20510;-40
2022/12/11 01:38:46;;;;;;;68.10;32.58;;;0.60;90.30;;;;;;5020855;28;20029;-42
2022/12/11 01:41:15;;;;;;;76.95;35.65;;;0.60;90.30;;;;;;5022409;28;20018;-41
2022/12/11 01:44:18;;;;;;;83.38;34.10;;;0.60;90.30;;;;;;5022397;28;20018;-43
2022/12/11 01:46:45;;;;;;;67.38;33.38;;;0.60;90.30;;;;;;5022263;28;20017;-41
2022/12/11 01:49:13;;;;;;;62.85;30.45;;;0.60;90.30;;;;;;5021107;28;20029;-43
2022/12/11 01:51:47;;;;;;;64.93;29.90;;;0.60;90.40;;;;;;5022441;28;20049;-41
2022/12/11 01:54:17;;;;;;;67.10;32.20;;;0.50;90.60;;;;;;5030254;28;20481;-45
2022/12/11 01:56:47;;;;;;;62.45;31.23;;;0.60;90.60;;;;;;5047928;28;20029;-40
2022/12/11 01:59:17;;;;;;;69.88;31.88;;;0.50;90.70;;;;;;5054835;28;20045;-40
2022/12/11 02:01:49;;;;;;;68.10;32.92;;;0.50;90.70;;;;;;5035180;28;20386;-41
2022/12/11 02:04:19;;;;;;;68.65;33.35;;;0.50;90.70;;;;;;5035975;28;20021;-43
2022/12/11 02:06:47;;;;;;;79.65;35.38;;;0.50;90.70;;;;;;5045751;28;20035;-42
2022/12/11 02:09:17;;;;;;;82.63;32.70;;;0.50;90.70;;;;;;5035485;28;20029;-41
2022/12/11 02:12:07;;;;;;;89.22;36.83;;;0.50;90.60;;;;;;5035752;28;20044;-45
2022/12/11 02:15:11;;;;;;;79.32;35.38;;;0.50;90.80;;;;;;5034841;28;20079;-43
2022/12/11 02:18:18;;;;;;;83.60;33.72;;;0.60;91.00;;;;;;5034821;28;20033;-46
2022/12/11 02:21:14;;;;;;;86.20;34.33;;;0.50;90.90;;;;;;5052372;28;20080;-41
2022/12/11 02:24:28;;;;;;;84.22;34.72;;;0.50;90.90;;;;;;5052874;28;20041;-40
2022/12/11 02:27:12;;;;;;;77.53;33.15;;;0.40;90.80;;;;;;5037692;28;20041;-46
2022/12/11 02:29:50;;;;;;;79.28;33.63;;;0.40;91.00;;;;;;5027284;28;20045;-42
2022/12/11 02:32:38;;;;;;;85.78;33.33;;;0.50;91.10;;;;;;5028449;28;20040;-41
2022/12/11 02:35:30;;;;;;;83.70;33.83;;;0.50;91.10;;;;;;5022392;28;20060;-42
2022/12/11 02:38:06;;;;;;;82.82;34.85;;;0.50;91.10;;;;;;5023163;28;20053;-42
2022/12/11 02:40:38;;;;;;;79.78;33.30;;;0.50;91.10;;;;;;5027079;28;20520;-43
2022/12/11 02:43:08;;;;;;;87.90;34.97;;;0.50;91.20;;;;;;5034929;28;20025;-44
2022/12/11 02:45:37;;;;;;;87.95;33.85;;;0.50;91.20;;;;;;5028050;28;20022;-41
2022/12/11 02:48:07;;;;;;;82.80;31.73;;;0.50;91.10;;;;;;5029421;28;20070;-42
2022/12/11 02:50:36;;;;;;;79.30;31.63;;;0.50;91.20;;;;;;5055274;28;20443;-42
2022/12/11 02:53:05;;;;;;;71.00;32.40;;;0.50;91.30;;;;;;5054335;28;20032;-44
2022/12/11 02:55:35;;;;;;;81.82;33.55;;;0.50;91.20;;;;;;5049981;28;20032;-45
2022/12/11 02:58:22;;;;;;;74.82;31.80;;;0.50;91.30;;;;;;5044256;28;20053;-42
2022/12/11 03:00:48;;;;;;;70.55;29.27;;;0.50;91.20;;;;;;5026588;28;20060;-41
2022/12/11 03:03:15;;;;;;;67.75;32.95;;;0.40;91.20;;;;;;5034512;28;20026;-41
2022/12/11 03:05:42;;;;;;;73.75;31.42;;;0.40;91.30;;;;;;5052420;28;20677;-43
2022/12/11 03:08:10;;;;;;;77.22;33.65;;;0.40;91.40;;;;;;5043566;28;20037;-41
2022/12/11 03:10:37;;;;;;;70.78;31.30;;;0.40;91.30;;;;;;5034625;28;20067;-41
2022/12/11 03:13:04;;;;;;;73.60;31.23;;;0.40;91.40;;;;;;5034792;28;20099;-42
2022/12/11 03:15:48;;;;;;;75.82;31.50;;;0.40;91.50;;;;;;5033314;28;20029;-43
2022/12/11 03:18:32;;;;;;;76.70;36.50;;;0.40;91.60;;;;;;5042810;28;20029;-46
2022/12/11 03:21:13;;;;;;;73.57;35.47;;;0.40;91.60;;;;;;5054509;28;20032;-43
2022/12/11 03:23:53;;;;;;;81.75;32.45;;;0.40;91.60;;;;;;5055042;28;20037;-42
2022/12/11 03:26:19;;;;;;;;;;;0.40;91.70;;;;;;5041988;28;20029;-46
2022/12/11 03:29:03;;;;;;;74.68;28.20;;;0.40;91.80;;;;;;5047972;28;19908;-45
2022/12/11 03:32:08;;;;;;;74.90;29.55;;;0.40;91.70;;;;;;5040543;28;20025;-43
2022/12/11 03:34:53;;;;;;;82.30;30.20;;;0.40;91.60;;;;;;5051143;28;20048;-46
2022/12/11 03:37:22;;;;;;;70.00;26.83;;;0.40;91.70;;;;;;5054551;28;20017;-43
2022/12/11 03:39:52;;;;;;;80.07;30.20;;;0.40;91.80;;;;;;5048872;28;20036;-43
2022/12/11 03:42:21;;;;;;;72.57;28.98;;;0.40;91.80;;;;;;5032730;28;20029;-44
2022/12/11 03:44:50;;;;;;;84.05;29.90;;;0.40;91.70;;;;;;5034342;28;20036;-44
2022/12/11 03:47:20;;;;;;;72.53;28.70;;;0.30;91.80;;;;;;5032582;28;20123;-41
2022/12/11 03:49:48;;;;;;;77.53;30.40;;;0.30;91.80;;;;;;5034321;28;20030;-42
2022/12/11 03:52:16;;;;;;;83.38;29.27;;;0.30;91.90;;;;;;5018719;28;20152;-43
2022/12/11 03:54:46;;;;;;;67.47;27.05;;;0.30;91.80;;;;;;5037668;28;20474;-40
2022/12/11 03:57:15;;;;;;;79.88;28.42;;;0.30;91.90;;;;;;5033690;28;20086;-44
2022/12/11 03:59:43;;;;;;;72.30;26.75;;;0.20;91.80;;;;;;5026737;28;20022;-42
2022/12/11 04:02:09;;;;;;;76.88;28.73;;;0.20;92.00;;;;;;5023299;28;20092;-42
2022/12/11 04:04:42;;;;;;;74.20;31.63;;;0.20;91.90;;;;;;5014576;28;20018;-44
2022/12/11 04:07:08;;;;;;;69.13;25.02;;;0.20;92.00;;;;;;5052700;28;20120;-44
2022/12/11 04:09:35;;;;;;;68.22;26.30;;;0.30;92.10;;;;;;5052303;28;20032;-42
2022/12/11 04:12:03;;;;;;;73.13;26.15;;;0.20;92.00;;;;;;5043197;28;20037;-41
2022/12/11 04:24:13;;;;;;;65.93;26.90;;;0.20;92.00;;;;;;5024484;28;20132;-44
2022/12/11 04:25:34;;;;;;;70.13;27.80;;;0.10;92.10;;;;;;5033573;28;20113;-43
2022/12/11 04:28:01;;;;;;;59.95;25.35;;;0.10;92.00;;;;;;5033285;28;20022;-44
2022/12/11 04:30:28;;;;;;;62.85;25.45;;;0.10;92.00;;;;;;5033627;28;20446;-43
2022/12/11 04:32:57;;;;;;;57.17;23.65;;;0.10;92.10;;;;;;5030102;28;20072;-41
2022/12/11 04:35:24;;;;;;;62.17;24.88;;;0.00;92.00;;;;;;5033270;28;20033;-41
2022/12/11 04:37:51;;;;;;;60.22;25.88;;;0.10;92.20;;;;;;5031959;28;20374;-42
2022/12/11 04:40:19;;;;;;;64.03;24.90;;;0.10;92.20;;;;;;5033194;28;20033;-42
2022/12/11 04:42:45;;;;;;;58.90;25.73;;;0.00;92.20;;;;;;4995503;28;20117;-43
2022/12/11 04:45:13;;;;;;;64.13;23.75;;;0.10;92.20;;;;;;5049499;28;20021;-43
2022/12/11 04:47:40;;;;;;;63.28;25.02;;;0.10;92.10;;;;;;5039057;28;20029;-41
2022/12/11 04:50:10;;;;;;;64.70;25.13;;;0.10;92.10;;;;;;5032934;28;20053;-42
2022/12/11 04:52:37;;;;;;;66.88;25.85;;;0.10;92.10;;;;;;5040253;28;20056;-41
2022/12/11 04:55:05;;;;;;;58.15;24.85;;;0.10;92.20;;;;;;5037677;28;20116;-42
2022/12/11 04:57:33;;;;;;;57.22;22.52;;;0.00;92.10;;;;;;5032464;28;20180;-43
2022/12/11 05:00:05;;;;;;;59.15;25.15;;;0.00;92.00;;;;;;5031928;28;20033;-42
2022/12/11 05:02:36;;;;;;;61.03;21.85;;;0.00;91.90;;;;;;5033407;28;20026;-41
2022/12/11 05:05:05;;;;;;;52.17;22.10;;;0.00;92.20;;;;;;5020309;28;20072;-42
2022/12/11 05:07:33;;;;;;;64.32;23.88;;;0.00;92.20;;;;;;5032827;28;20018;-41
2022/12/11 05:10:02;;;;;;;68.15;26.70;;;0.00;92.20;;;;;;5032613;28;20033;-42
2022/12/11 05:12:31;;;;;;;54.30;23.67;;;0.00;92.20;;;;;;5032451;28;20057;-44
2022/12/11 05:15:00;;;;;;;56.65;21.67;;;0.00;92.20;;;;;;5031917;28;20355;-42
2022/12/11 05:17:25;;;;;;;60.22;25.13;;;0.00;92.00;;;;;;5029672;28;20347;-42
2022/12/11 05:19:52;;;;;;;62.45;24.52;;;0.00;92.20;;;;;;5011555;28;20056;-41
2022/12/11 05:22:19;;;;;;;61.10;27.70;;;0.00;92.30;;;;;;5039190;28;20442;-43
2022/12/11 05:24:45;;;;;;;49.17;22.67;;;0.00;92.30;;;;;;5052680;28;20029;-44
2022/12/11 05:27:12;;;;;;;52.72;22.55;;;0.00;92.40;;;;;;5042433;28;20028;-42
2022/12/11 05:29:40;;;;;;;53.97;23.75;;;0.00;92.30;;;;;;5036586;28;20048;-41
2022/12/11 05:32:07;;;;;;;51.95;22.40;;;-3276.70;92.40;;;;;;5033743;28;20025;-42
2022/12/11 05:34:34;;;;;;;57.20;23.42;;;-3276.70;92.40;;;;;;5016540;28;20482;-41
2022/12/11 05:37:01;;;;;;;48.40;20.15;;;0.00;92.50;;;;;;5016712;28;20044;-44
2022/12/11 05:39:28;;;;;;;49.25;21.90;;;0.00;92.50;;;;;;5032528;28;20445;-43
2022/12/11 05:41:54;;;;;;;54.78;20.90;;;0.00;92.50;;;;;;5038666;28;20036;-40
2022/12/11 05:44:21;;;;;;;59.00;22.30;;;0.00;92.50;;;;;;5056161;28;20025;-42
2022/12/11 05:46:51;;;;;;;53.38;23.50;;;0.00;92.50;;;;;;5056379;28;20021;-46
2022/12/11 05:49:20;;;;;;;55.60;23.67;;;0.00;92.50;;;;;;5035323;28;20079;-41
2022/12/11 05:51:47;;;;;;;45.33;21.60;;;0.00;92.50;;;;;;5036023;28;20490;-42
2022/12/11 05:54:14;;;;;;;49.72;22.25;;;0.00;92.60;;;;;;5043340;28;20488;-45
2022/12/11 05:56:41;;;;;;;52.38;21.30;;;-3276.70;92.50;;;;;;5055145;28;20039;-41
2022/12/11 05:59:11;;;;;;;53.65;21.35;;;-3276.70;92.50;;;;;;5038206;28;20049;-41
2022/12/11 06:01:40;;;;;;;43.90;19.90;;;-3276.70;92.60;;;;;;5035112;28;20053;-41
2022/12/11 06:04:09;;;;;;;37.65;17.40;;;-3276.70;92.50;;;;;;5038071;28;20041;-41
2022/12/11 06:06:36;;;;;;;44.03;19.07;;;0.00;92.60;;;;;;5036091;28;20049;-41
2022/12/11 06:09:04;;;;;;;42.05;19.10;;;-3276.70;92.50;;;;;;5052733;28;20082;-43
2022/12/11 06:11:32;;;;;;;45.22;19.70;;;-3276.70;92.40;;;;;;5044068;28;20044;-42
2022/12/11 06:14:00;;;;;;;43.47;19.25;;;-3276.70;92.50;;;;;;5035094;28;20045;-42
2022/12/11 06:16:27;;;;;;;42.27;18.17;;;-3276.60;92.50;;;;;;5034861;28;20048;-42
2022/12/11 06:18:54;;;;;;;49.13;20.17;;;-3276.60;92.50;;;;;;5028644;28;20814;-42
2022/12/11 06:21:26;;;;;;;44.25;18.45;;;-3276.60;92.40;;;;;;5030496;28;20208;-41
2022/12/11 06:23:55;;;;;;;48.58;20.58;;;-3276.60;92.50;;;;;;5035908;28;20029;-43
2022/12/11 06:26:22;;;;;;;44.90;17.80;;;-3276.60;92.30;;;;;;5048214;28;20032;-42
2022/12/11 06:28:52;;;;;;;42.78;19.88;;;-3276.60;92.60;;;;;;5040700;28;20034;-44
2022/12/11 06:31:19;;;;;;;;;;;-3276.60;92.40;;;;;;5016432;28;20033;-42
2022/12/11 06:33:46;;;;;;;34.10;16.50;;;-3276.60;92.60;;;;;;5021927;28;19919;-41
2022/12/11 06:36:15;;;;;;;38.67;15.75;;;-3276.60;92.50;;;;;;5053458;28;20036;-41
2022/12/11 06:38:43;;;;;;;36.75;17.25;;;-3276.60;92.30;;;;;;5054171;28;20056;-41
2022/12/11 06:41:10;;;;;;;34.90;15.02;;;-3276.60;92.30;;;;;;5041062;28;20523;-41
2022/12/11 06:43:38;;;;;;;37.28;16.02;;;-3276.60;92.20;;;;;;5029081;28;20022;-44
2022/12/11 06:46:07;;;;;;;40.72;17.50;;;-3276.60;92.30;;;;;;5035473;28;20418;-43
2022/12/11 06:48:34;;;;;;;31.33;15.23;;;-3276.50;92.20;;;;;;5028980;28;20431;-41
2022/12/11 06:51:06;;;;;;;35.78;16.38;;;-3276.60;92.30;;;;;;5024007;28;20049;-40
2022/12/11 06:53:31;;;;;;;38.15;16.48;;;-3276.60;92.30;;;;;;5026927;28;20120;-42
2022/12/11 06:56:07;;;;;;;36.55;18.42;;;-3276.50;92.20;;;;;;5021638;28;20108;-42
2022/12/11 06:58:36;;;;;;;41.25;17.33;;;-3276.60;92.30;;;;;;5020924;28;20084;-42
2022/12/11 07:01:04;;;;;;;33.55;16.88;;;-3276.60;92.30;;;;;;5029091;28;20375;-42
2022/12/11 07:03:33;;;;;;;37.72;18.15;;;-3276.60;92.30;;;;;;5027171;28;20033;-43
2022/12/11 07:06:01;;;;;;;32.17;15.45;;;-3276.60;92.30;;;;;;5022860;28;20018;-43
2022/12/11 07:08:28;;;;;;;34.90;16.45;;;-3276.60;92.20;;;;;;5026958;28;20079;-44
2022/12/11 07:11:02;;;;;;;31.25;14.18;;;-3276.60;92.10;;;;;;5027531;28;20439;-41
2022/12/11 07:13:36;;;;;;;28.75;15.32;;;-3276.60;92.20;;;;;;5024788;28;20044;-43
2022/12/11 07:16:09;;;;;;;34.92;16.02;;;-3276.60;92.20;;;;;;5022826;28;20037;-41
2022/12/11 07:18:45;;;;;;;32.15;14.88;;;-3276.60;92.20;;;;;;5022179;28;20124;-43
2022/12/11 07:21:13;;;;;;;35.17;16.35;;;-3276.60;92.20;;;;;;5023851;28;20030;-41
2022/12/11 07:23:41;;;;;;;32.05;14.95;;;-3276.60;92.20;;;;;;5014094;28;20117;-43
2022/12/11 07:26:10;;;;;;;33.60;15.27;;;-3276.60;92.10;;;;;;5019682;28;20021;-41
2022/12/11 07:28:37;;;;;;;;;;;-3276.60;92.00;;;;;;5027076;28;20439;-41
2022/12/11 07:31:15;;;;;;;39.55;18.17;;;-3276.60;92.00;;;;;;5025084;28;19916;-46
2022/12/11 07:33:42;;;;;;;35.25;17.23;;;-3276.60;92.10;;;;;;5024794;28;20383;-42
2022/12/11 07:36:11;;;;;;;42.53;18.35;;;-3276.60;92.00;;;;;;5024076;28;20109;-45
2022/12/11 07:38:38;;;;;;;38.53;18.43;;;-3276.60;92.00;;;;;;5030947;28;20042;-41
2022/12/11 07:41:07;;;;;;;34.63;16.20;;;-3276.50;91.90;;;;;;5017168;28;20306;-43
2022/12/11 07:43:35;;;;;;;33.22;16.23;;;-3276.50;92.00;;;;;;5028770;28;20054;-44
2022/12/11 07:46:04;;;;;;;37.60;17.45;;;-3276.50;92.10;;;;;;5033305;28;20025;-42
2022/12/11 07:48:33;;;;;;;32.80;16.92;;;-3276.50;92.00;;;;;;5031682;28;20558;-43
2022/12/11 07:51:26;;;;;;;34.75;17.58;;;-3276.50;92.10;;;;;;5027819;28;20060;-43
2022/12/11 07:53:54;;;;;;;42.05;18.63;;;-3276.50;92.20;;;;;;5034146;28;20102;-47
2022/12/11 07:56:20;;;;;;;36.30;17.20;;;-3276.60;92.20;;;;;;5033390;28;20819;-43
2022/12/11 07:58:47;;;;;;;40.10;17.60;;;-3276.60;92.20;;;;;;5032161;28;20085;-42
2022/12/11 08:01:22;;;;;;;36.72;18.08;;;-3276.60;92.40;;;;;;5032807;28;20359;-44
2022/12/11 08:03:49;;;;;;;35.28;18.48;;;-3276.60;92.20;;;;;;5023209;28;20455;-41
2022/12/11 08:06:17;;;;;;;39.97;16.90;;;-3276.60;92.10;;;;;;5022937;28;20029;-41
2022/12/11 08:08:43;;;;;;;35.95;17.23;;;-3276.60;92.00;;;;;;5025314;28;20104;-43
2022/12/11 08:11:13;;;;;;;31.75;16.42;;;-3276.60;92.10;;;;;;5024722;28;20458;-42
2022/12/11 08:13:41;;;;;;;31.67;15.27;;;-3276.60;92.10;;;;;;5033632;28;20031;-42
2022/12/11 08:16:12;;;;;;;30.42;15.52;;;-3276.50;91.90;;;;;;5030655;28;20029;-44
2022/12/11 08:18:40;;;;;;;29.80;16.52;;;-3276.50;91.90;;;;;;5030513;28;20048;-42
2022/12/11 08:21:07;;;;;;;31.60;15.13;;;-3276.50;92.10;;;;;;5025202;28;20033;-47
2022/12/11 08:23:33;;;;;;;28.50;13.82;;;-3276.60;92.10;;;;;;5024343;28;20065;-41
2022/12/11 08:26:02;;;;;;;30.23;15.88;;;-3276.60;92.20;;;;;;5024442;28;20025;-43
2022/12/11 08:28:29;;;;;;;27.88;12.35;;;-3276.60;92.10;;;;;;5017819;28;20029;-41
2022/12/11 08:30:57;;;;;;;26.33;13.40;;;-3276.60;91.90;;;;;;5018209;28;20327;-41
2022/12/11 08:33:24;;;;;;;30.58;14.00;;;-3276.60;91.90;;;;;;5026252;28;20029;-41
2022/12/11 08:35:51;;;;;;;29.25;12.75;;;-3276.60;91.90;;;;;;5022965;28;20379;-41
2022/12/11 08:38:18;;;;;;;25.40;12.88;;;-3276.70;92.00;;;;;;5020303;28;20566;-43
2022/12/11 08:40:45;;;;;;;23.70;12.13;;;-3276.70;92.00;;;;;;5024228;28;20351;-43
2022/12/11 08:43:15;;;;;;;25.17;12.57;;;0.00;91.90;;;;;;5021918;28;20036;-43
2022/12/11 08:45:41;;;;;;;25.75;11.07;;;-3276.70;91.60;;;;;;5024758;28;20022;-42
2022/12/11 08:48:11;;;;;;;30.90;12.45;;;-3276.70;91.70;;;;;;5022339;28;20037;-43
2022/12/11 08:50:38;;;;;;;26.52;12.07;;;-3276.60;91.40;;;;;;5024640;28;20025;-41
2022/12/11 08:53:07;;;;;;;24.02;11.45;;;-3276.60;91.60;;;;;;5025081;28;20044;-43
2022/12/11 08:55:33;;;;;;;22.88;11.35;;;-3276.70;91.70;;;;;;5026640;28;20061;-42
2022/12/11 08:58:00;;;;;;;29.70;12.60;;;-3276.70;91.60;;;;;;5022786;28;20199;-47
2022/12/11 09:00:27;;;;;;;26.02;12.38;;;-3276.70;91.60;;;;;;5036848;28;20033;-43
2022/12/11 09:02:54;;;;;;;20.85;11.65;;;-3276.70;91.40;;;;;;5029719;28;20071;-43
2022/12/11 09:05:25;;;;;;;25.42;12.35;;;-3276.70;91.50;;;;;;5032739;28;20332;-42
2022/12/11 09:07:52;;;;;;;26.15;13.13;;;-3276.70;91.60;;;;;;5031256;28;20028;-42
2022/12/11 09:10:18;;;;;;;29.40;14.25;;;-3276.70;91.60;;;;;;5035791;28;20458;-41
2022/12/11 09:12:46;;;;;;;28.20;13.13;;;0.00;91.60;;;;;;5050444;28;20047;-43
2022/12/11 09:15:12;;;;;;;26.77;13.57;;;-3276.70;91.60;;;;;;5047532;28;20090;-42
2022/12/11 09:17:39;;;;;;;30.30;14.38;;;-3276.70;91.50;;;;;;5043297;28;20052;-40
2022/12/11 09:20:07;;;;;;;25.30;14.18;;;-3276.70;91.50;;;;;;5019226;28;20057;-41
2022/12/11 09:22:34;;;;;;;31.20;16.15;;;0.00;91.70;;;;;;5015137;28;20026;-43
2022/12/11 09:25:00;;;;;;;29.98;15.60;;;0.00;91.70;;;;;;5023716;28;20447;-41
2022/12/11 09:27:28;;;;;;;28.17;14.77;;;0.00;91.40;;;;;;5012661;28;20041;-43
2022/12/11 09:29:55;;;;;;;27.50;15.65;;;0.00;91.50;;;;;;5020008;28;20025;-42
2022/12/11 09:32:22;;;;;;;26.70;14.07;;;0.00;91.20;;;;;;5030430;28;20032;-46
2022/12/11 09:34:50;;;;;;;26.85;13.13;;;0.00;91.20;;;;;;5015776;28;20030;-46
2022/12/11 09:37:18;;;;;;;29.02;14.30;;;0.00;91.30;;;;;;5023048;28;20067;-44
2022/12/11 09:39:44;;;;;;;27.70;15.20;;;0.00;91.30;;;;;;5031853;28;20021;-46
2022/12/11 09:42:43;;;;;;;28.13;13.82;;;0.00;91.40;;;;;;5031580;28;20112;-44
2022/12/11 09:45:13;;;;;;;27.52;13.20;;;0.00;91.50;;;;;;5020293;28;20523;-45
2022/12/11 09:47:45;;;;;;;28.52;15.52;;;0.00;91.40;;;;;;5029751;28;20041;-44
2022/12/11 09:50:31;;;;;;;27.77;13.35;;;0.10;91.30;;;;;;5020551;28;20394;-41
2022/12/11 09:53:21;;;;;;;28.35;12.93;;;0.20;91.10;;;;;;5019548;28;20030;-44
2022/12/11 09:56:08;;;;;;;23.40;13.35;;;0.10;90.80;;;;;;5025993;28;20033;-43
2022/12/11 09:58:46;;;;;;;21.45;12.25;;;0.10;90.70;;;;;;5028435;28;20091;-42
2022/12/11 10:01:45;;;;;;;23.42;11.85;;;0.00;90.60;;;;;;5017441;28;20068;-42
2022/12/11 10:04:44;;;;;;;24.65;11.45;;;0.10;90.50;;;;;;5021871;28;20040;-41
2022/12/11 10:07:30;;;;;;;25.15;14.07;;;0.00;90.30;;;;;;5018538;28;20029;-44
2022/12/11 10:10:37;;;;;;;21.95;10.80;;;0.00;90.40;;;;;;5018948;28;20045;-42
2022/12/11 10:13:30;;;;;;;23.63;13.00;;;0.00;90.60;;;;;;5024701;28;20382;-42
2022/12/11 10:16:37;;;;;;;27.42;11.80;;;0.00;90.30;;;;;;5035684;28;20041;-44
2022/12/11 10:19:05;;;;;;;24.60;13.50;;;0.00;90.00;;;;;;5034233;28;20055;-42
2022/12/11 10:21:40;;;;;;;24.33;11.90;;;0.00;89.80;;;;;;5026433;28;20100;-42
2022/12/11 10:24:24;;;;;;;25.42;12.98;;;0.00;89.80;;;;;;5029252;28;20033;-47
2022/12/11 10:26:56;;;;;;;27.08;12.45;;;0.00;89.80;;;;;;5035304;28;20336;-44
2022/12/11 10:29:23;;;;;;;23.13;11.93;;;0.00;89.90;;;;;;5035415;28;20372;-41
2022/12/11 10:31:59;;;;;;;26.00;12.65;;;0.00;90.00;;;;;;5039583;28;20086;-41
2022/12/11 10:34:45;;;;;;;25.00;10.95;;;0.00;90.00;;;;;;5024605;28;20026;-41
2022/12/11 10:37:11;;;;;;;26.20;12.95;;;0.00;89.90;;;;;;5019363;28;20168;-43
2022/12/11 10:39:41;;;;;;;22.23;12.00;;;0.00;89.80;;;;;;5032180;28;20037;-41
2022/12/11 10:42:21;;;;;;;23.73;12.82;;;0.10;90.00;;;;;;5033804;28;20131;-43
2022/12/11 10:45:03;;;;;;;18.95;10.77;;;0.00;89.90;;;;;;5016724;28;20014;-44
2022/12/11 10:47:32;;;;;;;20.15;10.52;;;0.10;89.70;;;;;;5028289;28;20363;-42
2022/12/11 10:50:01;;;;;;;19.45;10.13;;;0.10;89.40;;;;;;5023992;28;20040;-43
2022/12/11 10:52:43;;;;;;;19.10;10.57;;;0.10;89.30;;;;;;5018080;28;20568;-44
2022/12/11 10:55:29;;;;;;;19.08;9.05;;;0.20;89.50;;;;;;5041952;28;20044;-43
2022/12/11 10:58:00;;;;;;;16.38;8.50;;;0.20;89.30;;;;;;5034816;28;20057;-43
2022/12/11 11:00:32;;;;;;;15.55;8.32;;;0.20;88.90;;;;;;5039246;28;20078;-41
2022/12/11 11:03:00;;;;;;;16.65;8.05;;;0.20;89.20;;;;;;5045737;28;20029;-43
2022/12/11 11:05:30;;;;;;;17.77;9.90;;;0.20;89.10;;;;;;5016775;28;20053;-41
2022/12/11 11:08:26;;;;;;;16.75;8.80;;;0.30;89.10;;;;;;5020913;28;20116;-44
2022/12/11 11:10:58;;;;;;;20.95;11.07;;;0.30;89.00;;;;;;5033337;28;20052;-41
2022/12/11 11:13:28;;;;;;;17.80;9.25;;;0.30;89.10;;;;;;5026106;28;20060;-43
2022/12/11 11:16:11;;;;;;;17.17;8.70;;;0.30;88.90;;;;;;5029467;28;20029;-42
2022/12/11 11:18:40;;;;;;;18.73;9.30;;;0.30;88.80;;;;;;5027907;28;20033;-44
2022/12/11 11:21:17;;;;;;;19.63;9.30;;;0.30;88.60;;;;;;5025922;28;20043;-45
2022/12/11 11:23:43;;;;;;;15.10;8.43;;;0.30;88.80;;;;;;5012597;28;20128;-44
2022/12/11 11:26:11;;;;;;;16.80;8.77;;;0.30;89.00;;;;;;5024136;28;20030;-43
2022/12/11 11:28:50;;;;;;;18.95;8.50;;;0.30;89.10;;;;;;5029419;28;20026;-42
2022/12/11 11:31:19;;;;;;;19.67;8.87;;;0.30;89.20;;;;;;5022638;28;20649;-42
2022/12/11 11:33:53;;;;;;;20.75;10.32;;;0.40;89.20;;;;;;5025206;28;20279;-41
2022/12/11 11:36:24;;;;;;;17.98;9.63;;;0.20;89.20;;;;;;5025658;28;20057;-41
2022/12/11 11:39:06;;;;;;;17.50;8.90;;;0.30;89.40;;;;;;5024866;28;20029;-44
2022/12/11 11:41:51;;;;;;;18.50;10.02;;;0.30;89.50;;;;;;5024586;28;20045;-42
2022/12/11 11:44:54;;;;;;;18.65;9.32;;;0.40;89.50;;;;;;5022919;28;20040;-44
2022/12/11 11:47:29;;;;;;;20.95;10.25;;;0.40;89.20;;;;;;5008086;28;20095;-41
2022/12/11 11:50:03;;;;;;;20.00;8.55;;;0.40;89.30;;;;;;5030213;28;20026;-42
2022/12/11 11:52:55;;;;;;;16.45;9.00;;;0.40;89.40;;;;;;5031433;28;20033;-41
2022/12/11 11:55:58;;;;;;;16.75;8.20;;;0.40;89.30;;;;;;5016707;28;20517;-42
2022/12/11 11:58:36;;;;;;;18.42;9.48;;;0.40;89.30;;;;;;5043495;28;20704;-43
2022/12/11 12:01:02;;;;;;;20.83;10.40;;;0.30;89.00;;;;;;5013813;28;20029;-42
2022/12/11 12:03:30;;;;;;;21.45;10.65;;;0.30;88.90;;;;;;5033786;28;20025;-47
2022/12/11 12:06:18;;;;;;;17.35;10.60;;;0.20;89.10;;;;;;5036909;28;20033;-43
2022/12/11 12:09:11;;;;;;;25.00;13.15;;;0.20;89.40;;;;;;5032273;28;20053;-45
2022/12/11 12:12:02;;;;;;;28.42;10.52;;;0.20;89.60;;;;;;5035771;28;20036;-44
2022/12/11 12:14:53;;;;;;;20.73;11.00;;;0.30;89.80;;;;;;5012891;28;20058;-41
2022/12/11 12:17:56;;;;;;;24.73;11.80;;;0.30;89.60;;;;;;5012883;28;20049;-43
2022/12/11 12:20:44;;;;;;;24.17;12.95;;;0.20;89.60;;;;;;5033200;28;20083;-44
2022/12/11 12:23:47;;;;;;;18.73;10.40;;;0.20;89.80;;;;;;5031432;28;20049;-43
2022/12/11 12:26:30;;;;;;;21.20;11.68;;;0.20;89.90;;;;;;5012542;28;20407;-41
2022/12/11 12:29:08;;;;;;;20.92;11.20;;;0.20;89.70;;;;;;5020669;28;20083;-48
2022/12/11 12:31:45;;;;;;;16.35;10.45;;;0.20;89.70;;;;;;5024418;28;20064;-43
2022/12/11 12:34:40;;;;;;;17.02;8.95;;;0.20;90.00;;;;;;5023972;28;20025;-43
2022/12/11 12:37:36;;;;;;;16.35;9.07;;;0.20;90.10;;;;;;5027531;28;20403;-44
2022/12/11 12:40:21;;;;;;;24.13;11.52;;;0.30;90.00;;;;;;5022233;28;20033;-44
2022/12/11 12:43:05;;;;;;;18.33;9.52;;;0.20;90.10;;;;;;5029320;28;20477;-41
2022/12/11 12:46:10;;;;;;;18.65;9.48;;;0.30;89.90;;;;;;5032570;28;20025;-43
2022/12/11 12:48:38;;;;;;;16.55;8.95;;;0.30;90.10;;;;;;5027401;28;20046;-43
2022/12/11 12:51:13;;;;;;;18.73;11.00;;;0.30;90.00;;;;;;5040296;28;20029;-46
2022/12/11 12:53:42;;;;;;;20.90;11.13;;;0.30;89.90;;;;;;5020557;28;20034;-41
2022/12/11 12:56:10;;;;;;;19.73;10.13;;;0.30;89.90;;;;;;5042862;28;20048;-44
2022/12/11 12:58:44;;;;;;;20.02;9.27;;;0.30;89.80;;;;;;5034842;28;20639;-42
2022/12/11 13:01:29;;;;;;;18.48;10.82;;;0.30;89.90;;;;;;5031529;28;20129;-47
2022/12/11 13:04:04;;;;;;;21.13;11.52;;;0.30;89.60;;;;;;5023877;28;20331;-46
2022/12/11 13:06:57;;;;;;;21.98;11.07;;;0.30;89.50;;;;;;5022684;28;20029;-46